sensor_id;sensor_type;location;lat;lon;timestamp;temperature;humidity
21518;DHT22;61765;45.794;24.150;2023-09-30T00:06:19;19.60;81.20
21518;DHT22;61765;45.794;24.150;2023-09-30T00:14:27;19.20;81.60
21518;DHT22;61765;45.794;24.150;2023-09-30T00:22:33;19.30;81.30
21518;DHT22;61765;45.794;24.150;2023-09-30T00:30:41;19.20;81.40
21518;DHT22;61765;45.794;24.150;2023-09-30T00:38:50;19.30;81.00
21518;DHT22;61765;45.794;24.150;2023-09-30T00:46:59;19.30;80.80
21518;DHT22;61765;45.794;24.150;2023-09-30T00:55:05;19.20;80.40
21518;DHT22;61765;45.794;24.150;2023-09-30T01:03:16;19.20;80.40
21518;DHT22;61765;45.794;24.150;2023-09-30T01:11:22;19.20;80.60
21518;DHT22;61765;45.794;24.150;2023-09-30T01:19:31;19.10;80.70
21518;DHT22;61765;45.794;24.150;2023-09-30T02:03:15;18.90;81.80
21518;DHT22;61765;45.794;24.150;2023-09-30T02:11:21;18.70;82.40
21518;DHT22;61765;45.794;24.150;2023-09-30T02:19:29;18.50;83.00
21518;DHT22;61765;45.794;24.150;2023-09-30T02:27:36;18.30;83.20
21518;DHT22;61765;45.794;24.150;2023-09-30T02:35:46;18.00;83.80
21518;DHT22;61765;45.794;24.150;2023-09-30T02:43:53;18.10;84.10
21518;DHT22;61765;45.794;24.150;2023-09-30T02:52:01;18.00;83.90
21518;DHT22;61765;45.794;24.150;2023-09-30T03:00:09;17.70;84.10
21518;DHT22;61765;45.794;24.150;2023-09-30T03:08:32;17.70;84.30
21518;DHT22;61765;45.794;24.150;2023-09-30T03:16:39;17.80;84.30
21518;DHT22;61765;45.794;24.150;2023-09-30T03:25:01;17.80;84.70
21518;DHT22;61765;45.794;24.150;2023-09-30T03:33:10;17.80;84.90
21518;DHT22;61765;45.794;24.150;2023-09-30T03:41:18;17.70;84.90
21518;DHT22;61765;45.794;24.150;2023-09-30T03:49:24;17.70;85.40
21518;DHT22;61765;45.794;24.150;2023-09-30T03:57:32;17.70;84.90
21518;DHT22;61765;45.794;24.150;2023-09-30T04:05:38;17.60;85.40
21518;DHT22;61765;45.794;24.150;2023-09-30T04:13:47;17.60;85.20
21518;DHT22;61765;45.794;24.150;2023-09-30T04:21:53;17.70;85.50
21518;DHT22;61765;45.794;24.150;2023-09-30T04:30:01;17.60;85.50
21518;DHT22;61765;45.794;24.150;2023-09-30T04:38:11;17.50;85.10
21518;DHT22;61765;45.794;24.150;2023-09-30T04:46:19;17.70;85.50
21518;DHT22;61765;45.794;24.150;2023-09-30T04:54:26;17.50;85.10
21518;DHT22;61765;45.794;24.150;2023-09-30T05:02:34;17.70;85.30
21518;DHT22;61765;45.794;24.150;2023-09-30T05:10:40;17.70;85.00
21518;DHT22;61765;45.794;24.150;2023-09-30T05:18:48;17.60;85.30
21518;DHT22;61765;45.794;24.150;2023-09-30T05:26:55;17.50;85.40
21518;DHT22;61765;45.794;24.150;2023-09-30T05:35:04;17.60;85.00
21518;DHT22;61765;45.794;24.150;2023-09-30T05:43:15;17.80;85.30
21518;DHT22;61765;45.794;24.150;2023-09-30T05:51:24;17.90;85.00
21518;DHT22;61765;45.794;24.150;2023-09-30T05:59:30;18.30;83.50
21518;DHT22;61765;45.794;24.150;2023-09-30T06:07:38;18.60;83.50
21518;DHT22;61765;45.794;24.150;2023-09-30T06:15:47;19.30;82.20
21518;DHT22;61765;45.794;24.150;2023-09-30T06:23:55;19.90;80.30
21518;DHT22;61765;45.794;24.150;2023-09-30T06:32:01;20.60;78.20
21518;DHT22;61765;45.794;24.150;2023-09-30T06:40:11;20.80;76.70
21518;DHT22;61765;45.794;24.150;2023-09-30T06:48:16;20.30;78.90
21518;DHT22;61765;45.794;24.150;2023-09-30T06:56:24;21.30;76.20
21518;DHT22;61765;45.794;24.150;2023-09-30T07:04:30;21.50;75.70
21518;DHT22;61765;45.794;24.150;2023-09-30T07:12:39;22.30;73.20
21518;DHT22;61765;45.794;24.150;2023-09-30T07:20:44;22.50;73.70
21518;DHT22;61765;45.794;24.150;2023-09-30T07:28:52;22.80;71.90
21518;DHT22;61765;45.794;24.150;2023-09-30T07:36:59;23.40;70.10
21518;DHT22;61765;45.794;24.150;2023-09-30T07:45:09;23.60;69.30
21518;DHT22;61765;45.794;24.150;2023-09-30T07:53:19;23.50;69.70
21518;DHT22;61765;45.794;24.150;2023-09-30T08:01:30;24.10;68.30
21518;DHT22;61765;45.794;24.150;2023-09-30T08:09:58;24.30;67.20
21518;DHT22;61765;45.794;24.150;2023-09-30T08:18:09;24.70;66.70
21518;DHT22;61765;45.794;24.150;2023-09-30T08:26:15;24.80;65.80
21518;DHT22;61765;45.794;24.150;2023-09-30T08:34:23;25.30;64.20
21518;DHT22;61765;45.794;24.150;2023-09-30T08:42:28;25.90;62.40
21518;DHT22;61765;45.794;24.150;2023-09-30T08:50:39;26.00;62.70
21518;DHT22;61765;45.794;24.150;2023-09-30T08:58:45;26.40;62.10
21518;DHT22;61765;45.794;24.150;2023-09-30T09:07:00;27.30;59.90
21518;DHT22;61765;45.794;24.150;2023-09-30T09:15:07;28.10;59.00
21518;DHT22;61765;45.794;24.150;2023-09-30T09:23:15;28.70;58.10
21518;DHT22;61765;45.794;24.150;2023-09-30T09:31:22;29.60;55.70
21518;DHT22;61765;45.794;24.150;2023-09-30T09:39:32;30.30;56.30
21518;DHT22;61765;45.794;24.150;2023-09-30T09:47:37;35.30;51.60
21518;DHT22;61765;45.794;24.150;2023-09-30T09:55:46;43.60;40.50
21518;DHT22;61765;45.794;24.150;2023-09-30T10:03:52;49.00;33.50
21518;DHT22;61765;45.794;24.150;2023-09-30T10:12:01;51.00;31.90
21518;DHT22;61765;45.794;24.150;2023-09-30T10:20:08;53.50;30.20
21518;DHT22;61765;45.794;24.150;2023-09-30T10:28:41;55.40;29.50
21518;DHT22;61765;45.794;24.150;2023-09-30T10:36:49;57.00;28.50
21518;DHT22;61765;45.794;24.150;2023-09-30T10:44:58;58.10;27.40
21518;DHT22;61765;45.794;24.150;2023-09-30T10:53:06;58.80;26.90
21518;DHT22;61765;45.794;24.150;2023-09-30T11:01:16;59.50;26.80
21518;DHT22;61765;45.794;24.150;2023-09-30T11:09:23;60.10;26.70
21518;DHT22;61765;45.794;24.150;2023-09-30T11:17:31;60.50;26.00
21518;DHT22;61765;45.794;24.150;2023-09-30T11:25:37;60.70;25.90
21518;DHT22;61765;45.794;24.150;2023-09-30T11:33:54;60.90;25.30
21518;DHT22;61765;45.794;24.150;2023-09-30T11:42:14;53.10;26.70
21518;DHT22;61765;45.794;24.150;2023-09-30T11:50:22;44.20;31.80
21518;DHT22;61765;45.794;24.150;2023-09-30T11:58:33;39.00;36.40
21518;DHT22;61765;45.794;24.150;2023-09-30T12:06:41;35.70;39.90
21518;DHT22;61765;45.794;24.150;2023-09-30T12:14:47;34.10;41.70
21518;DHT22;61765;45.794;24.150;2023-09-30T12:22:55;33.20;42.40
21518;DHT22;61765;45.794;24.150;2023-09-30T12:31:01;32.00;42.90
21518;DHT22;61765;45.794;24.150;2023-09-30T12:39:10;31.60;44.50
21518;DHT22;61765;45.794;24.150;2023-09-30T12:47:19;30.90;45.00
21518;DHT22;61765;45.794;24.150;2023-09-30T12:55:28;30.70;45.20
21518;DHT22;61765;45.794;24.150;2023-09-30T13:03:34;30.40;46.50
21518;DHT22;61765;45.794;24.150;2023-09-30T13:11:42;30.40;46.30
21518;DHT22;61765;45.794;24.150;2023-09-30T13:19:47;30.30;46.10
21518;DHT22;61765;45.794;24.150;2023-09-30T13:27:56;30.10;46.60
21518;DHT22;61765;45.794;24.150;2023-09-30T13:36:01;30.00;47.80
21518;DHT22;61765;45.794;24.150;2023-09-30T13:44:10;29.90;48.10
21518;DHT22;61765;45.794;24.150;2023-09-30T13:52:15;29.90;47.70
21518;DHT22;61765;45.794;24.150;2023-09-30T14:00:23;29.70;48.70
21518;DHT22;61765;45.794;24.150;2023-09-30T14:08:29;29.60;49.30
21518;DHT22;61765;45.794;24.150;2023-09-30T14:16:37;29.40;49.50
21518;DHT22;61765;45.794;24.150;2023-09-30T14:24:43;29.30;49.70
21518;DHT22;61765;45.794;24.150;2023-09-30T14:32:52;29.10;49.80
21518;DHT22;61765;45.794;24.150;2023-09-30T14:40:57;29.00;49.90
21518;DHT22;61765;45.794;24.150;2023-09-30T14:49:05;28.90;50.20
21518;DHT22;61765;45.794;24.150;2023-09-30T14:57:11;28.90;50.10
21518;DHT22;61765;45.794;24.150;2023-09-30T15:05:21;28.70;50.10
21518;DHT22;61765;45.794;24.150;2023-09-30T15:13:27;28.50;51.00
21518;DHT22;61765;45.794;24.150;2023-09-30T15:21:35;28.40;51.10
21518;DHT22;61765;45.794;24.150;2023-09-30T15:29:40;28.20;51.40
21518;DHT22;61765;45.794;24.150;2023-09-30T15:37:48;28.10;51.80
21518;DHT22;61765;45.794;24.150;2023-09-30T15:45:54;28.00;51.80
21518;DHT22;61765;45.794;24.150;2023-09-30T15:54:02;27.90;52.20
21518;DHT22;61765;45.794;24.150;2023-09-30T16:02:08;27.70;52.70
21518;DHT22;61765;45.794;24.150;2023-09-30T16:10:16;27.60;53.30
21518;DHT22;61765;45.794;24.150;2023-09-30T16:18:21;27.40;53.50
21518;DHT22;61765;45.794;24.150;2023-09-30T16:26:30;27.30;53.80
21518;DHT22;61765;45.794;24.150;2023-09-30T16:34:35;27.10;54.70
21518;DHT22;61765;45.794;24.150;2023-09-30T16:42:44;26.80;55.90
21518;DHT22;61765;45.794;24.150;2023-09-30T16:50:49;26.70;57.10
21518;DHT22;61765;45.794;24.150;2023-09-30T16:58:58;26.40;58.30
21518;DHT22;61765;45.794;24.150;2023-09-30T17:07:04;26.10;59.20
21518;DHT22;61765;45.794;24.150;2023-09-30T17:15:15;25.60;59.90
21518;DHT22;61765;45.794;24.150;2023-09-30T17:23:20;25.40;61.30
21518;DHT22;61765;45.794;24.150;2023-09-30T17:31:28;25.30;61.30
21518;DHT22;61765;45.794;24.150;2023-09-30T17:39:35;24.80;62.50
21518;DHT22;61765;45.794;24.150;2023-09-30T17:47:43;24.70;62.80
21518;DHT22;61765;45.794;24.150;2023-09-30T17:55:48;24.50;63.10
21518;DHT22;61765;45.794;24.150;2023-09-30T18:03:56;24.40;63.90
21518;DHT22;61765;45.794;24.150;2023-09-30T18:12:04;24.00;65.00
21518;DHT22;61765;45.794;24.150;2023-09-30T18:20:13;24.30;64.70
21518;DHT22;61765;45.794;24.150;2023-09-30T18:28:18;24.10;65.10
21518;DHT22;61765;45.794;24.150;2023-09-30T18:36:27;24.20;64.80
21518;DHT22;61765;45.794;24.150;2023-09-30T18:44:33;24.10;64.90
21518;DHT22;61765;45.794;24.150;2023-09-30T18:52:45;24.10;65.20
21518;DHT22;61765;45.794;24.150;2023-09-30T19:00:50;24.00;65.20
21518;DHT22;61765;45.794;24.150;2023-09-30T19:08:58;23.90;65.40
21518;DHT22;61765;45.794;24.150;2023-09-30T19:17:04;23.90;65.80
21518;DHT22;61765;45.794;24.150;2023-09-30T19:25:15;23.70;65.90
21518;DHT22;61765;45.794;24.150;2023-09-30T19:33:21;23.80;66.70
21518;DHT22;61765;45.794;24.150;2023-09-30T19:41:29;23.60;67.50
21518;DHT22;61765;45.794;24.150;2023-09-30T19:49:40;23.50;68.20
21518;DHT22;61765;45.794;24.150;2023-09-30T19:57:48;23.40;68.40
21518;DHT22;61765;45.794;24.150;2023-09-30T20:05:54;23.50;68.20
21518;DHT22;61765;45.794;24.150;2023-09-30T20:14:02;23.50;68.70
21518;DHT22;61765;45.794;24.150;2023-09-30T20:22:07;23.40;69.20
21518;DHT22;61765;45.794;24.150;2023-09-30T20:30:15;23.40;69.20
21518;DHT22;61765;45.794;24.150;2023-09-30T20:38:21;23.40;68.90
21518;DHT22;61765;45.794;24.150;2023-09-30T20:46:29;23.40;68.80
21518;DHT22;61765;45.794;24.150;2023-09-30T20:54:34;23.40;68.80
21518;DHT22;61765;45.794;24.150;2023-09-30T21:02:43;23.40;69.20
21518;DHT22;61765;45.794;24.150;2023-09-30T21:10:49;23.30;69.70
21518;DHT22;61765;45.794;24.150;2023-09-30T21:18:57;23.20;70.00
21518;DHT22;61765;45.794;24.150;2023-09-30T21:27:03;23.00;70.40
21518;DHT22;61765;45.794;24.150;2023-09-30T21:35:11;22.90;71.60
21518;DHT22;61765;45.794;24.150;2023-09-30T21:43:17;22.70;72.00
21518;DHT22;61765;45.794;24.150;2023-09-30T21:51:25;22.60;72.50
21518;DHT22;61765;45.794;24.150;2023-09-30T21:59:30;22.60;72.70
21518;DHT22;61765;45.794;24.150;2023-09-30T22:07:39;22.50;73.10
21518;DHT22;61765;45.794;24.150;2023-09-30T22:15:44;22.60;73.60
21518;DHT22;61765;45.794;24.150;2023-09-30T22:23:53;22.40;73.60
21518;DHT22;61765;45.794;24.150;2023-09-30T22:31:59;22.30;73.80
21518;DHT22;61765;45.794;24.150;2023-09-30T22:40:08;22.10;74.20
21518;DHT22;61765;45.794;24.150;2023-09-30T22:48:14;22.10;75.00
21518;DHT22;61765;45.794;24.150;2023-09-30T22:56:22;21.90;75.40
21518;DHT22;61765;45.794;24.150;2023-09-30T23:04:28;22.00;75.50
21518;DHT22;61765;45.794;24.150;2023-09-30T23:12:37;22.10;75.00
21518;DHT22;61765;45.794;24.150;2023-09-30T23:20:42;22.00;75.10
21518;DHT22;61765;45.794;24.150;2023-09-30T23:28:51;22.00;75.40
21518;DHT22;61765;45.794;24.150;2023-09-30T23:36:56;21.90;76.00
21518;DHT22;61765;45.794;24.150;2023-09-30T23:45:06;21.70;76.30
21518;DHT22;61765;45.794;24.150;2023-09-30T23:53:14;21.50;76.80
